createdAt,value
2022-11-19T00:01:39.906Z,1.60
2022-11-19T00:08:22.526Z,1.50
2022-11-19T00:12:50.114Z,1.80
2022-11-19T00:19:22.442Z,1.80
2022-11-19T00:22:24.054Z,1.65
2022-11-19T00:25:28.358Z,2.30
2022-11-19T00:29:33.070Z,6.32
2022-11-19T00:37:31.784Z,1.83
2022-11-19T00:41:23.015Z,1.73
2022-11-19T00:44:26.948Z,1.50
2022-11-19T00:50:35.439Z,1.50
2022-11-19T00:53:43.221Z,1.50
2022-11-19T00:56:47.401Z,1.60
2022-11-19T01:03:00.136Z,1.50
2022-11-19T01:06:05.963Z,1.60
2022-11-19T01:09:09.178Z,1.58
2022-11-19T01:12:10.797Z,1.42
2022-11-19T01:15:12.636Z,1.35
2022-11-19T01:22:44.199Z,1.60
2022-11-19T01:29:24.526Z,1.60
2022-11-19T01:32:26.131Z,1.70
2022-11-19T01:35:37.800Z,1.50
2022-11-19T01:38:39.499Z,1.60
2022-11-19T01:41:41.065Z,1.40
2022-11-19T01:45:00.358Z,1.60
2022-11-19T01:48:31.803Z,1.50
2022-11-19T01:51:39.071Z,1.55
2022-11-19T01:54:49.973Z,1.50
2022-11-19T01:57:59.125Z,1.55
2022-11-19T02:01:01.394Z,1.73
2022-11-19T02:08:32.502Z,1.85
2022-11-19T02:11:48.333Z,1.60
2022-11-19T02:14:55.913Z,1.48
2022-11-19T02:27:27.047Z,1.60
2022-11-19T02:30:49.604Z,1.30
2022-11-19T02:34:34.150Z,1.60
2022-11-19T02:37:49.082Z,1.63
2022-11-19T02:41:24.728Z,1.80
2022-11-19T02:44:57.675Z,1.63
2022-11-19T02:48:05.292Z,1.70
2022-11-19T02:51:09.185Z,1.70
2022-11-19T02:54:10.873Z,1.40
2022-11-19T02:57:32.205Z,1.60
2022-11-19T03:01:28.765Z,1.55
2022-11-19T03:04:32.857Z,1.52
2022-11-19T03:07:35.987Z,1.50
2022-11-19T03:10:56.885Z,1.55
2022-11-19T03:14:41.800Z,1.45
2022-11-19T03:18:22.375Z,1.60
2022-11-19T03:21:46.723Z,1.67
2022-11-19T03:25:05.794Z,1.55
2022-11-19T03:28:19.401Z,1.98
2022-11-19T03:31:23.865Z,1.60
2022-11-19T03:34:30.108Z,1.48
2022-11-19T03:37:38.687Z,1.50
2022-11-19T03:44:42.420Z,1.58
2022-11-19T03:47:46.869Z,1.50
2022-11-19T03:50:57.436Z,1.77
2022-11-19T03:54:00.304Z,1.88
2022-11-19T03:57:10.336Z,1.50
2022-11-19T04:00:16.788Z,1.48
2022-11-19T04:03:18.668Z,1.30
2022-11-19T04:06:27.536Z,1.70
2022-11-19T04:09:37.286Z,1.60
2022-11-19T04:13:17.780Z,1.60
2022-11-19T04:16:19.376Z,1.70
2022-11-19T04:19:21.505Z,1.67
2022-11-19T04:22:23.569Z,1.70
2022-11-19T04:25:25.420Z,1.48
2022-11-19T04:32:33.072Z,1.63
2022-11-19T04:35:37.123Z,1.70
2022-11-19T05:00:08.481Z,2.15
2022-11-19T05:04:03.681Z,1.80
2022-11-19T05:11:10.162Z,1.88
2022-11-19T05:14:35.294Z,1.90
2022-11-19T05:17:37.087Z,1.70
2022-11-19T05:20:53.490Z,1.70
2022-11-19T05:32:41.513Z,1.85
2022-11-19T05:36:19.439Z,1.85
2022-11-19T05:39:22.448Z,1.60
2022-11-19T05:42:24.218Z,1.58
2022-11-19T05:45:25.904Z,1.70
2022-11-19T05:48:29.964Z,1.60
2022-11-19T05:51:32.226Z,1.80
2022-11-19T05:54:33.985Z,1.70
2022-11-19T05:57:36.509Z,1.75
2022-11-19T06:00:38.130Z,1.65
2022-11-19T06:03:40.802Z,1.50
2022-11-19T06:06:42.528Z,1.63
2022-11-19T06:09:44.235Z,1.90
2022-11-19T06:12:46.374Z,1.50
2022-11-19T06:15:48.402Z,1.80
2022-11-19T06:18:50.303Z,1.50
2022-11-19T06:21:52.829Z,1.70
2022-11-19T06:24:57.175Z,1.83
2022-11-19T06:27:58.903Z,1.70
2022-11-19T06:31:00.501Z,2.28
2022-11-19T06:34:02.628Z,2.45
2022-11-19T06:37:04.698Z,1.90
2022-11-19T06:40:07.276Z,2.03
2022-11-19T06:43:43.543Z,1.98
2022-11-19T06:46:54.090Z,4.72
2022-11-19T06:49:55.678Z,3.20
2022-11-19T06:52:57.691Z,2.80
2022-11-19T06:56:01.844Z,2.60
2022-11-19T06:59:03.485Z,6.38
2022-11-19T07:02:05.735Z,6.78
2022-11-19T07:05:08.561Z,6.45
2022-11-19T07:08:10.747Z,6.88
2022-11-19T07:15:33.728Z,2.92
2022-11-19T07:22:58.973Z,2.60
2022-11-19T07:26:39.396Z,2.60
2022-11-19T07:29:44.950Z,2.80
2022-11-19T07:33:06.442Z,3.22
2022-11-19T07:36:49.826Z,3.60
2022-11-19T07:44:38.806Z,3.50
2022-11-19T07:47:35.184Z,4.20
2022-11-19T07:54:34.681Z,3.83
2022-11-19T07:57:44.769Z,3.28
2022-11-19T08:01:06.766Z,2.88
2022-11-19T08:04:08.556Z,2.80
2022-11-19T08:07:10.264Z,3.08
2022-11-19T08:10:19.695Z,2.80
2022-11-19T08:13:21.440Z,3.40
2022-11-19T08:16:45.704Z,3.15
2022-11-19T08:20:16.214Z,3.72
2022-11-19T08:23:20.516Z,3.60
2022-11-19T08:26:31.662Z,3.45
2022-11-19T08:29:38.375Z,2.83
2022-11-19T08:32:42.767Z,2.63
2022-11-19T08:35:44.550Z,2.35
2022-11-19T08:38:59.553Z,2.28
2022-11-19T08:42:31.442Z,3.22
2022-11-19T08:45:45.440Z,2.15
2022-11-19T08:48:53.454Z,2.15
2022-11-19T08:52:00.074Z,2.58
2022-11-19T08:55:04.335Z,2.00
2022-11-19T08:58:08.937Z,2.50
2022-11-19T09:05:21.096Z,2.65
2022-11-19T09:08:44.927Z,3.63
2022-11-19T09:11:46.729Z,2.80
2022-11-19T09:18:09.958Z,2.00
2022-11-19T09:24:45.277Z,3.00
2022-11-19T09:28:31.768Z,3.03
2022-11-19T09:32:03.434Z,2.47
2022-11-19T09:35:17.874Z,2.53
2022-11-19T09:38:21.442Z,2.20
2022-11-19T09:41:59.289Z,2.50
2022-11-19T09:48:37.094Z,2.33
2022-11-19T09:52:12.180Z,1.80
2022-11-19T09:55:22.988Z,2.67
2022-11-19T09:58:51.284Z,2.28
2022-11-19T10:07:23.255Z,2.35
2022-11-19T10:10:41.642Z,2.20
2022-11-19T10:14:01.933Z,1.90
2022-11-19T10:17:24.313Z,2.10
2022-11-19T10:20:53.093Z,2.15
2022-11-19T10:24:04.063Z,2.38
2022-11-19T10:27:30.128Z,2.33
2022-11-19T10:30:32.027Z,2.42
2022-11-19T10:33:48.633Z,2.63
2022-11-19T10:36:58.657Z,2.70
2022-11-19T10:40:08.366Z,2.45
2022-11-19T10:43:28.843Z,2.70
2022-11-19T10:46:30.699Z,2.28
2022-11-19T10:49:38.592Z,2.10
2022-11-19T10:52:48.630Z,2.38
2022-11-19T10:56:01.625Z,3.00
2022-11-19T10:59:24.337Z,2.28
2022-11-19T11:03:02.455Z,2.22
2022-11-19T11:06:07.549Z,1.95
2022-11-19T11:09:16.326Z,2.20
2022-11-19T11:12:44.983Z,2.20
2022-11-19T11:15:59.723Z,2.15
2022-11-19T11:19:01.343Z,2.00
2022-11-19T11:22:10.460Z,1.98
2022-11-19T11:25:30.930Z,2.20
2022-11-19T11:28:35.793Z,2.08
2022-11-19T11:31:47.658Z,2.55
2022-11-19T11:34:51.606Z,2.20
2022-11-19T11:37:53.233Z,2.50
2022-11-19T11:41:31.560Z,2.30
2022-11-19T11:44:26.775Z,2.30
2022-11-19T11:47:32.092Z,2.17
2022-11-19T11:50:37.028Z,2.50
2022-11-19T11:53:39.005Z,2.10
2022-11-19T11:56:40.833Z,2.25
2022-11-19T11:59:42.775Z,2.53
2022-11-19T12:03:00.443Z,2.70
2022-11-19T12:06:07.857Z,2.60
2022-11-19T12:09:27.739Z,2.92
2022-11-19T12:12:45.635Z,2.60
2022-11-19T12:16:28.889Z,3.08
2022-11-19T12:20:12.962Z,2.78
2022-11-19T12:23:42.804Z,2.60
2022-11-19T12:26:50.563Z,2.55
2022-11-19T12:30:08.170Z,3.00
2022-11-19T12:33:25.133Z,2.85
2022-11-19T12:39:45.263Z,2.90
2022-11-19T12:42:57.497Z,2.70
2022-11-19T12:46:39.004Z,3.53
2022-11-19T12:49:43.930Z,2.85
2022-11-19T12:53:01.075Z,3.05
2022-11-19T12:59:42.656Z,2.78
2022-11-19T13:11:14.687Z,2.90
2022-11-19T13:18:10.734Z,2.60
2022-11-19T13:21:33.160Z,2.55
2022-11-19T13:25:39.294Z,2.53
2022-11-19T13:33:38.941Z,3.70
2022-11-19T13:37:13.047Z,3.03
2022-11-19T13:41:00.093Z,2.53
2022-11-19T13:48:29.549Z,2.60
2022-11-19T13:51:38.156Z,2.88
2022-11-19T13:54:46.189Z,2.85
2022-11-19T13:57:49.605Z,3.20
2022-11-19T14:01:49.186Z,3.17
2022-11-19T14:05:28.888Z,3.05
2022-11-19T14:08:54.508Z,2.65
2022-11-19T14:16:55.163Z,2.10
2022-11-19T14:21:25.208Z,2.38
2022-11-19T14:29:05.572Z,2.53
2022-11-19T14:32:07.357Z,2.53
2022-11-19T14:35:15.309Z,2.38
2022-11-19T14:38:20.111Z,2.80
2022-11-19T14:41:34.377Z,3.75
2022-11-19T14:44:36.376Z,3.13
2022-11-19T14:48:13.289Z,2.85
2022-11-19T14:51:20.098Z,3.07
2022-11-19T14:54:53.946Z,3.03
2022-11-19T14:58:26.665Z,3.58
2022-11-19T15:02:12.280Z,3.53
2022-11-19T15:09:02.352Z,5.13
2022-11-19T15:12:04.724Z,4.03
2022-11-19T15:15:22.438Z,3.78
2022-11-19T15:18:43.187Z,3.55
2022-11-19T15:21:52.863Z,4.40
2022-11-19T15:25:02.133Z,4.55
2022-11-19T15:28:08.511Z,3.83
2022-11-19T15:31:22.480Z,3.65
2022-11-19T15:35:11.255Z,4.07
2022-11-19T15:38:24.954Z,3.10
2022-11-19T15:46:24.801Z,5.68
2022-11-19T15:49:49.381Z,5.90
2022-11-19T15:53:30.245Z,5.93
2022-11-19T15:56:42.325Z,4.82
2022-11-19T15:59:48.054Z,3.58
2022-11-19T16:03:30.351Z,3.83
2022-11-19T16:06:32.699Z,5.50
2022-11-19T16:09:35.681Z,4.57
2022-11-19T16:13:46.051Z,4.00
2022-11-19T16:17:16.426Z,3.45
2022-11-19T16:27:58.702Z,5.32
2022-11-19T16:41:29.865Z,5.13
2022-11-19T16:43:49.200Z,5.22
2022-11-19T16:46:53.671Z,8.65
2022-11-19T16:51:00.038Z,5.78
2022-11-19T16:54:34.392Z,5.57
2022-11-19T16:57:36.206Z,4.68
2022-11-19T17:00:38.369Z,4.70
2022-11-19T17:04:36.540Z,4.78
2022-11-19T17:08:04.431Z,4.68
2022-11-19T17:12:34.801Z,5.85
2022-11-19T17:16:30.586Z,5.63
2022-11-19T17:19:41.289Z,4.38
2022-11-19T17:23:13.181Z,5.07
2022-11-19T17:26:44.577Z,4.82
2022-11-19T17:33:04.664Z,4.70
2022-11-19T17:36:18.873Z,4.07
2022-11-19T17:43:22.613Z,5.68
2022-11-19T17:46:53.265Z,5.22
2022-11-19T17:49:57.359Z,5.07
2022-11-19T17:53:06.250Z,5.57
2022-11-19T17:56:29.094Z,5.72
2022-11-19T17:59:33.812Z,5.57
2022-11-19T18:02:35.482Z,4.57
2022-11-19T18:05:38.414Z,4.93
2022-11-19T18:08:42.170Z,4.07
2022-11-19T18:11:43.834Z,4.85
2022-11-19T18:14:48.693Z,5.65
2022-11-19T18:17:50.347Z,4.78
2022-11-19T18:20:52.101Z,4.60
2022-11-19T18:23:53.748Z,4.68
2022-11-19T18:26:55.414Z,5.68
2022-11-19T18:29:57.058Z,5.03
2022-11-19T18:32:58.805Z,5.43
2022-11-19T18:36:00.421Z,8.05
2022-11-19T18:39:05.765Z,5.00
2022-11-19T18:42:17.913Z,4.47
2022-11-19T18:45:22.928Z,4.40
2022-11-19T18:48:32.292Z,4.20
2022-11-19T18:51:34.278Z,4.30
2022-11-19T18:54:35.955Z,4.63
2022-11-19T18:57:37.581Z,5.65
2022-11-19T19:00:39.196Z,7.15
2022-11-19T19:03:40.895Z,8.00
2022-11-19T19:06:42.493Z,5.57
2022-11-19T19:09:44.260Z,3.90
2022-11-19T19:12:45.883Z,4.13
2022-11-19T19:15:51.248Z,3.70
2022-11-19T19:18:52.885Z,3.63
2022-11-19T19:21:54.726Z,3.10
2022-11-19T19:24:58.300Z,3.63
2022-11-19T19:28:02.311Z,3.50
2022-11-19T19:31:04.428Z,3.50
2022-11-19T19:34:06.289Z,2.95
2022-11-19T19:37:08.248Z,3.22
2022-11-19T19:40:35.743Z,3.53
2022-11-19T19:43:40.090Z,3.28
2022-11-19T19:46:41.936Z,3.10
2022-11-19T19:49:43.629Z,3.10
2022-11-19T19:52:45.197Z,2.78
2022-11-19T19:55:46.840Z,3.35
2022-11-19T19:58:50.958Z,2.70
2022-11-19T20:01:58.640Z,3.10
2022-11-19T20:05:00.302Z,3.22
2022-11-19T20:08:01.915Z,2.83
2022-11-19T20:11:11.667Z,3.30
2022-11-19T20:14:13.713Z,3.33
2022-11-19T20:17:15.532Z,2.90
2022-11-19T20:20:17.140Z,2.80
2022-11-19T20:23:27.529Z,2.70
2022-11-19T20:26:30.998Z,2.80
2022-11-19T20:29:32.827Z,3.00
2022-11-19T20:32:34.542Z,2.83
2022-11-19T20:35:36.206Z,3.10
2022-11-19T20:38:41.100Z,2.85
2022-11-19T20:42:01.956Z,3.22
2022-11-19T20:45:04.371Z,3.42
2022-11-19T20:48:06.457Z,3.00
2022-11-19T20:51:09.221Z,2.53
2022-11-19T20:54:11.278Z,2.50
2022-11-19T20:57:12.957Z,2.78
2022-11-19T21:00:15.721Z,3.05
2022-11-19T21:03:17.409Z,3.00
2022-11-19T21:06:19.292Z,3.85
2022-11-19T21:09:21.933Z,3.47
2022-11-19T21:12:24.002Z,3.10
2022-11-19T21:15:25.618Z,2.63
2022-11-19T21:18:30.111Z,2.85
2022-11-19T21:24:38.143Z,2.63
2022-11-19T21:27:43.266Z,3.70
2022-11-19T21:30:51.270Z,3.40
2022-11-19T21:34:00.044Z,2.70
2022-11-19T21:37:01.746Z,2.78
2022-11-19T21:40:03.658Z,3.10
2022-11-19T21:43:06.532Z,3.85
2022-11-19T21:46:08.735Z,3.58
2022-11-19T21:49:13.475Z,3.40
2022-11-19T21:56:52.239Z,3.50
2022-11-19T22:00:37.360Z,3.83
2022-11-19T22:03:59.577Z,3.80
2022-11-19T22:10:27.912Z,4.53
2022-11-19T22:17:00.656Z,3.40
2022-11-19T22:17:45.935Z,3.50
2022-11-19T22:20:05.780Z,3.17
2022-11-19T22:26:50.473Z,3.40
2022-11-19T22:29:59.784Z,3.38
2022-11-19T22:33:55.602Z,2.78
2022-11-19T22:37:07.473Z,2.92
2022-11-19T22:40:09.811Z,2.95
2022-11-19T22:43:11.416Z,3.15
2022-11-19T22:46:33.983Z,3.28
2022-11-19T22:49:38.751Z,3.08
2022-11-19T22:52:46.600Z,2.92
2022-11-19T22:59:22.513Z,2.60
2022-11-19T23:02:24.379Z,2.85
2022-11-19T23:05:26.204Z,2.72
2022-11-19T23:08:27.847Z,3.00
2022-11-19T23:11:48.144Z,2.70
2022-11-19T23:14:49.796Z,2.58
2022-11-19T23:17:51.390Z,2.63
2022-11-19T23:21:04.967Z,2.80
2022-11-19T23:24:07.753Z,2.60
2022-11-19T23:27:09.339Z,2.58
2022-11-19T23:30:11.373Z,3.25
2022-11-19T23:33:13.052Z,2.70
2022-11-19T23:36:17.245Z,2.45
2022-11-19T23:39:19.252Z,2.15
2022-11-19T23:42:21.083Z,2.20
2022-11-19T23:45:22.867Z,2.50
2022-11-19T23:48:24.512Z,2.70
2022-11-19T23:51:38.577Z,2.47
2022-11-19T23:54:40.194Z,2.50
2022-11-19T23:57:41.717Z,2.42
